Main page
METAR-TAF:

METAR-TAF

Airports :

St. Gallen–Altenrhein Airport

St. Gallen, Switzerland

latitude: 47-29-06N, longitude: 009-33-43E, elevation: 398 m

Current weather observation

The report was made 19 minutes ago, at 20:50 UTC
Wind 2 kt from the East/Southeast
Temperature 1°C
Humidity 93%
Pressure 1017 hPa
Visibility: 7000 m
Broken clouds at a height of 1300 ft
Broken clouds at a height of 11000 ft

METAR: LSZR 212050Z AUTO 12002KT 7000 BKN013 BKN110 01/M00 Q1017

Time: 22:09 (21:09 UTC)

Forecast

The report was made 6 hours and 44 minutes ago, at 14:25 UTC
Forecast valid from 21 at 15 UTC to 21 at 24 UTC
Wind 3 kt from the North/Northwest
Visibility 10 km or more
Overcast at a height of 1100 ft
Becoming
from 21 at 18 UTC to 21 at 21 UTC
Broken clouds at a height of 900 ft
Probability 40%
from 21 at 18 UTC to 21 at 24 UTC
Few clouds at a height of 2000 ft
Broken clouds at a height of 8000 ft

TAF: LSZR 211425Z 2115/2124 33003KT 9999 OVC011 BECMG 2118/2121 BKN009 PROB40 2118/2124 FEW020 BKN080

Weather observations and forecasts of more than 4000 airports (METAR and TAF reports).

The available stations are represented by yellow and red dots on the map.

Hover mouse over dot to see the name of the station.

Then click to see weather observations and forecasts.

To change the map : click on the green buttons with a black cross to zoom in, on the green button with a dash to zoom out, or on the green arrows for adjacent maps.


METAR-TAF: